createdAt,value
2023-04-15T00:01:59.957Z,94.18
2023-04-15T00:07:00.772Z,94.22
2023-04-15T00:12:01.954Z,93.75
2023-04-15T00:17:04.393Z,93.96
2023-04-15T00:22:05.269Z,94.01
2023-04-15T00:27:06.060Z,93.43
2023-04-15T00:32:09.189Z,93.55
2023-04-15T00:37:10.218Z,93.83
2023-04-15T00:42:11.994Z,93.34
2023-04-15T00:47:15.684Z,93.71
2023-04-15T00:52:16.321Z,93.18
2023-04-15T00:57:17.382Z,93.76
2023-04-15T01:02:19.505Z,93.93
2023-04-15T01:07:20.360Z,93.69
2023-04-15T01:12:21.632Z,93.91
2023-04-15T01:17:24.518Z,93.45
2023-04-15T01:22:26.711Z,93.37
2023-04-15T01:27:28.913Z,93.48
2023-04-15T01:32:30.651Z,93.50
2023-04-15T01:37:32.059Z,93.56
2023-04-15T01:42:33.999Z,93.71
2023-04-15T01:47:34.783Z,94.10
2023-04-15T01:52:35.981Z,93.86
2023-04-15T01:57:38.076Z,93.03
2023-04-15T02:02:40.659Z,93.47
2023-04-15T02:07:41.657Z,94.14
2023-04-15T02:12:44.210Z,93.94
2023-04-15T02:17:50.793Z,94.09
2023-04-15T02:22:52.203Z,93.98
2023-04-15T02:27:54.201Z,94.09
2023-04-15T02:32:54.820Z,93.42
2023-04-15T02:37:58.804Z,94.12
2023-04-15T02:43:01.434Z,93.75
2023-04-15T02:48:06.163Z,93.49
2023-04-15T02:53:07.204Z,94.16
2023-04-15T02:58:09.129Z,93.86
2023-04-15T03:03:10.926Z,93.91
2023-04-15T03:08:11.710Z,93.61
2023-04-15T03:13:13.682Z,93.70
2023-04-15T03:18:14.494Z,93.94
2023-04-15T03:23:15.550Z,94.30
2023-04-15T03:28:17.590Z,94.41
2023-04-15T03:33:18.480Z,93.76
2023-04-15T03:38:19.352Z,94.41
2023-04-15T03:43:21.336Z,94.30
2023-04-15T03:48:22.006Z,94.40
2023-04-15T03:53:22.911Z,93.95
2023-04-15T03:58:25.031Z,93.94
2023-04-15T04:03:25.815Z,94.23
2023-04-15T04:08:27.540Z,93.98
2023-04-15T04:13:29.453Z,94.32
2023-04-15T04:18:30.023Z,95.01
2023-04-15T04:23:30.603Z,94.25
2023-04-15T04:28:32.524Z,94.52
2023-04-15T04:33:33.141Z,94.28
2023-04-15T04:38:34.164Z,94.55
2023-04-15T04:43:36.090Z,94.57
2023-04-15T04:48:36.897Z,94.67
2023-04-15T04:53:38.233Z,94.93
2023-04-15T04:58:40.172Z,94.75
2023-04-15T05:03:40.970Z,95.24
2023-04-15T05:08:41.961Z,94.74
2023-04-15T05:13:43.923Z,94.68
2023-04-15T05:18:44.535Z,95.03
2023-04-15T05:23:45.177Z,94.75
2023-04-15T05:28:47.877Z,94.70
2023-04-15T05:33:48.501Z,95.49
2023-04-15T05:38:49.113Z,95.33
2023-04-15T05:43:51.150Z,95.27
2023-04-15T05:48:52.201Z,95.46
2023-04-15T05:53:53.211Z,95.53
2023-04-15T05:58:55.137Z,95.44
2023-04-15T06:03:56.032Z,95.53
2023-04-15T06:08:57.407Z,95.33
2023-04-15T06:13:59.342Z,95.96
2023-04-15T06:19:00.068Z,95.44
2023-04-15T06:24:02.144Z,95.22
2023-04-15T06:29:04.295Z,95.24
2023-04-15T06:34:05.205Z,95.43
2023-04-15T06:39:05.798Z,95.02
2023-04-15T06:44:07.755Z,94.56
2023-04-15T06:49:08.538Z,94.20
2023-04-15T06:54:09.129Z,95.08
2023-04-15T06:59:11.106Z,93.53
2023-04-15T07:04:12.603Z,92.16
2023-04-15T07:09:13.590Z,91.50
2023-04-15T07:14:15.508Z,90.40
2023-04-15T07:19:16.147Z,90.44
2023-04-15T07:24:19.626Z,90.97
2023-04-15T07:29:21.606Z,90.62
2023-04-15T07:34:22.283Z,90.39
2023-04-15T07:39:23.292Z,89.95
2023-04-15T07:44:25.626Z,89.77
2023-04-15T07:49:26.209Z,90.04
2023-04-15T07:54:27.422Z,89.32
2023-04-15T07:59:33.364Z,88.82
2023-04-15T08:04:34.442Z,87.86
2023-04-15T08:09:35.643Z,88.08
2023-04-15T08:14:37.641Z,87.84
2023-04-15T08:19:38.317Z,86.49
2023-04-15T08:24:39.504Z,86.50
2023-04-15T08:29:43.584Z,85.58
2023-04-15T08:34:44.197Z,84.10
2023-04-15T08:39:45.398Z,83.62
2023-04-15T08:44:48.844Z,83.06
2023-04-15T08:49:53.908Z,82.09
2023-04-15T08:54:58.543Z,81.85
2023-04-15T09:00:03.974Z,83.22
2023-04-15T09:05:07.859Z,82.88
2023-04-15T09:10:09.860Z,82.96
2023-04-15T09:15:13.653Z,81.78
2023-04-15T09:20:15.933Z,81.52
2023-04-15T09:25:34.784Z,80.51
2023-04-15T09:30:36.990Z,79.58
2023-04-15T09:35:37.774Z,78.82
2023-04-15T09:40:41.311Z,78.96
2023-04-15T09:45:49.899Z,80.22
2023-04-15T09:50:53.583Z,80.13
2023-04-15T09:55:55.862Z,80.34
2023-04-15T10:00:59.010Z,79.98
2023-04-15T10:06:02.069Z,78.96
2023-04-15T10:11:03.490Z,79.10
2023-04-15T10:16:08.054Z,79.26
2023-04-15T10:21:09.981Z,78.54
2023-04-15T10:26:12.377Z,77.62
2023-04-15T10:31:15.878Z,78.10
2023-04-15T10:36:17.363Z,77.33
2023-04-15T10:41:21.625Z,76.33
2023-04-15T10:46:38.745Z,76.82
2023-04-15T10:51:42.435Z,76.01
2023-04-15T10:56:44.346Z,74.71
2023-04-15T11:01:56.770Z,71.57
2023-04-15T11:07:07.400Z,72.38
2023-04-15T11:12:09.701Z,74.88
2023-04-15T11:17:11.789Z,72.95
2023-04-15T11:22:13.007Z,74.11
2023-04-15T11:27:21.968Z,73.19
2023-04-15T11:32:24.036Z,72.29
2023-04-15T11:37:29.842Z,72.38
2023-04-15T11:42:42.829Z,69.69
2023-04-15T11:47:51.021Z,67.43
2023-04-15T11:52:55.141Z,67.51
2023-04-15T11:58:09.756Z,67.46
2023-04-15T12:03:19.616Z,68.68
2023-04-15T12:08:20.553Z,67.87
2023-04-15T12:13:21.147Z,69.04
2023-04-15T12:18:23.086Z,68.07
2023-04-15T12:23:23.712Z,68.25
2023-04-15T12:28:24.463Z,67.37
2023-04-15T12:33:34.138Z,66.36
2023-04-15T12:38:34.770Z,66.48
2023-04-15T12:43:35.392Z,66.35
2023-04-15T12:48:37.591Z,66.63
2023-04-15T12:53:38.315Z,66.01
2023-04-15T12:58:38.888Z,64.34
2023-04-15T13:03:41.039Z,64.92
2023-04-15T13:08:47.953Z,63.64
2023-04-15T13:13:56.947Z,63.66
2023-04-15T13:18:59.089Z,63.25
2023-04-15T13:24:00.485Z,62.76
2023-04-15T13:29:01.954Z,63.99
2023-04-15T13:34:04.243Z,62.11
2023-04-15T13:39:05.550Z,61.82
2023-04-15T13:44:06.512Z,63.52
2023-04-15T13:49:08.869Z,60.97
2023-04-15T13:54:09.816Z,60.54
2023-04-15T13:59:10.491Z,63.08
2023-04-15T14:04:12.637Z,62.97
2023-04-15T14:09:14.129Z,63.02
2023-04-15T14:14:16.258Z,61.79
2023-04-15T14:19:18.359Z,60.54
2023-04-15T14:24:18.924Z,59.61
2023-04-15T14:29:19.547Z,61.40
2023-04-15T14:34:22.245Z,61.18
2023-04-15T14:39:22.949Z,60.75
2023-04-15T14:44:24.082Z,60.02
2023-04-15T14:49:26.306Z,60.80
2023-04-15T14:54:26.947Z,60.43
2023-04-15T14:59:27.561Z,57.32
2023-04-15T15:04:32.998Z,56.65
2023-04-15T15:09:34.931Z,57.02
2023-04-15T15:14:35.663Z,57.35
2023-04-15T15:19:37.840Z,57.05
2023-04-15T15:24:38.468Z,57.10
2023-04-15T15:29:39.143Z,61.16
2023-04-15T15:34:41.265Z,60.18
2023-04-15T15:39:41.921Z,59.70
2023-04-15T15:44:42.569Z,57.60
2023-04-15T15:49:44.697Z,58.17
2023-04-15T15:54:45.313Z,57.85
2023-04-15T15:59:46.338Z,58.46
2023-04-15T16:04:50.148Z,59.26
2023-04-15T16:09:50.842Z,61.65
2023-04-15T16:14:51.913Z,60.59
2023-04-15T16:19:57.604Z,59.82
2023-04-15T16:25:02.034Z,59.20
2023-04-15T16:30:02.716Z,60.40
2023-04-15T16:35:05.421Z,60.42
2023-04-15T16:40:07.361Z,60.62
2023-04-15T16:45:08.567Z,61.76
2023-04-15T16:50:11.932Z,62.68
2023-04-15T16:55:12.658Z,64.17
2023-04-15T17:00:14.181Z,64.63
2023-04-15T17:05:16.207Z,64.65
2023-04-15T17:10:17.097Z,65.37
2023-04-15T17:15:17.926Z,65.65
2023-04-15T17:20:21.508Z,66.16
2023-04-15T17:25:22.149Z,66.83
2023-04-15T17:30:22.884Z,67.52
2023-04-15T17:35:26.158Z,68.64
2023-04-15T17:40:26.854Z,69.17
2023-04-15T17:45:27.520Z,68.77
2023-04-15T17:50:29.949Z,69.25
2023-04-15T17:55:30.721Z,68.80
2023-04-15T18:00:31.497Z,68.81
2023-04-15T18:05:33.822Z,69.20
2023-04-15T18:10:36.635Z,70.26
2023-04-15T18:15:37.418Z,70.90
2023-04-15T18:20:39.556Z,71.70
2023-04-15T18:25:43.242Z,71.65
2023-04-15T18:30:43.974Z,71.78
2023-04-15T18:35:47.188Z,72.87
2023-04-15T18:40:49.355Z,72.77
2023-04-15T18:45:50.071Z,72.88
2023-04-15T18:50:53.999Z,74.32
2023-04-15T18:55:56.269Z,74.34
2023-04-15T19:00:56.987Z,74.87
2023-04-15T19:05:58.949Z,75.02
2023-04-15T19:10:59.600Z,75.36
2023-04-15T19:16:00.172Z,75.66
2023-04-15T19:21:04.472Z,77.01
2023-04-15T19:26:05.306Z,76.96
2023-04-15T19:31:06.051Z,76.34
2023-04-15T19:36:08.697Z,76.46
2023-04-15T19:41:10.460Z,77.34
2023-04-15T19:46:13.254Z,77.34
2023-04-15T19:51:15.518Z,77.21
2023-04-15T19:56:16.509Z,77.87
2023-04-15T20:01:17.650Z,78.06
2023-04-15T20:06:19.650Z,79.24
2023-04-15T20:11:21.328Z,79.82
2023-04-15T20:16:22.101Z,80.56
2023-04-15T20:21:24.139Z,81.55
2023-04-15T20:26:25.120Z,81.47
2023-04-15T20:31:25.806Z,82.12
2023-04-15T20:36:39.134Z,82.51
2023-04-15T20:41:39.896Z,82.10
2023-04-15T20:46:40.561Z,82.72
2023-04-15T20:51:43.822Z,82.56
2023-04-15T20:56:44.489Z,82.65
2023-04-15T21:01:45.750Z,82.79
2023-04-15T21:06:48.268Z,83.34
2023-04-15T21:16:53.264Z,83.30
2023-04-15T21:21:55.199Z,83.51
2023-04-15T21:26:56.595Z,83.97
2023-04-15T21:31:59.859Z,83.99
2023-04-15T21:37:02.001Z,84.70
2023-04-15T21:42:02.837Z,84.85
2023-04-15T21:47:03.538Z,85.14
2023-04-15T21:52:06.240Z,85.15
2023-04-15T21:57:06.901Z,85.39
2023-04-15T22:02:07.611Z,85.34
2023-04-15T22:07:09.712Z,84.94
2023-04-15T22:12:11.444Z,85.06
2023-04-15T22:17:12.073Z,85.69
2023-04-15T22:22:14.042Z,85.92
2023-04-15T22:27:14.606Z,85.50
2023-04-15T22:32:15.286Z,85.87
2023-04-15T22:37:17.208Z,85.76
2023-04-15T22:42:17.820Z,85.91
2023-04-15T22:47:18.986Z,85.93
2023-04-15T22:52:30.168Z,86.26
2023-04-15T22:57:31.411Z,85.88
2023-04-15T23:02:32.258Z,86.32
2023-04-15T23:07:34.444Z,86.14
2023-04-15T23:12:35.042Z,86.13
2023-04-15T23:17:35.898Z,86.44
2023-04-15T23:22:38.381Z,85.67
2023-04-15T23:27:39.003Z,85.16
2023-04-15T23:32:39.819Z,84.70
2023-04-15T23:37:41.786Z,83.71
2023-04-15T23:42:42.419Z,83.39
2023-04-15T23:47:43.092Z,83.29
2023-04-15T23:52:45.125Z,83.38
2023-04-15T23:57:45.726Z,82.65
